sensor_id;sensor_type;location;lat;lon;timestamp;temperature;humidity
1524;DHT22;755;53.658;10.118;2023-05-27T00:06:48;9.70;99.90
1524;DHT22;755;53.658;10.118;2023-05-27T00:16:51;9.60;99.90
1524;DHT22;755;53.658;10.118;2023-05-27T00:26:59;9.40;99.90
1524;DHT22;755;53.658;10.118;2023-05-27T00:37:04;9.40;99.90
1524;DHT22;755;53.658;10.118;2023-05-27T00:47:20;9.20;99.90
1524;DHT22;755;53.658;10.118;2023-05-27T00:57:23;9.10;99.90
1524;DHT22;755;53.658;10.118;2023-05-27T01:07:38;9.20;99.90
1524;DHT22;755;53.658;10.118;2023-05-27T01:18:12;8.80;99.90
1524;DHT22;755;53.658;10.118;2023-05-27T01:28:25;8.90;99.90
1524;DHT22;755;53.658;10.118;2023-05-27T01:38:30;8.80;99.90
1524;DHT22;755;53.658;10.118;2023-05-27T01:48:41;8.60;99.90
1524;DHT22;755;53.658;10.118;2023-05-27T01:58:46;8.50;99.90
1524;DHT22;755;53.658;10.118;2023-05-27T02:08:50;8.40;99.90
1524;DHT22;755;53.658;10.118;2023-05-27T02:18:56;8.30;99.90
1524;DHT22;755;53.658;10.118;2023-05-27T02:29:06;8.10;99.90
1524;DHT22;755;53.658;10.118;2023-05-27T02:39:14;8.00;99.90
1524;DHT22;755;53.658;10.118;2023-05-27T03:00:12;7.70;99.90
1524;DHT22;755;53.658;10.118;2023-05-27T03:10:27;7.50;99.90
1524;DHT22;755;53.658;10.118;2023-05-27T03:20:45;7.40;99.90
1524;DHT22;755;53.658;10.118;2023-05-27T03:31:54;7.40;99.90
1524;DHT22;755;53.658;10.118;2023-05-27T03:41:46;7.50;99.90
1524;DHT22;755;53.658;10.118;2023-05-27T03:52:00;7.50;99.90
1524;DHT22;755;53.658;10.118;2023-05-27T04:02:08;7.40;99.90
1524;DHT22;755;53.658;10.118;2023-05-27T04:12:11;7.60;99.90
1524;DHT22;755;53.658;10.118;2023-05-27T04:22:19;7.70;99.90
1524;DHT22;755;53.658;10.118;2023-05-27T04:32:29;7.60;99.90
1524;DHT22;755;53.658;10.118;2023-05-27T04:43:05;8.10;99.90
1524;DHT22;755;53.658;10.118;2023-05-27T04:53:08;8.50;99.90
1524;DHT22;755;53.658;10.118;2023-05-27T05:03:14;8.90;99.90
1524;DHT22;755;53.658;10.118;2023-05-27T05:13:33;9.00;99.90
1524;DHT22;755;53.658;10.118;2023-05-27T05:23:41;8.90;99.90
1524;DHT22;755;53.658;10.118;2023-05-27T05:33:48;9.40;99.90
1524;DHT22;755;53.658;10.118;2023-05-27T05:43:58;9.60;99.90
1524;DHT22;755;53.658;10.118;2023-05-27T05:54:02;10.00;99.90
1524;DHT22;755;53.658;10.118;2023-05-27T06:04:11;10.30;99.90
1524;DHT22;755;53.658;10.118;2023-05-27T06:14:13;10.70;99.90
1524;DHT22;755;53.658;10.118;2023-05-27T06:24:16;10.90;99.90
1524;DHT22;755;53.658;10.118;2023-05-27T06:34:19;11.20;80.30
1524;DHT22;755;53.658;10.118;2023-05-27T06:44:23;11.60;1.00
1524;DHT22;755;53.658;10.118;2023-05-27T06:54:25;12.00;99.90
1524;DHT22;755;53.658;10.118;2023-05-27T07:04:28;12.50;99.90
1524;DHT22;755;53.658;10.118;2023-05-27T07:14:30;12.60;1.00
1524;DHT22;755;53.658;10.118;2023-05-27T07:24:33;13.10;99.90
1524;DHT22;755;53.658;10.118;2023-05-27T07:34:35;13.70;1.00
1524;DHT22;755;53.658;10.118;2023-05-27T07:44:38;14.40;1.00
1524;DHT22;755;53.658;10.118;2023-05-27T08:06:20;15.40;99.90
1524;DHT22;755;53.658;10.118;2023-05-27T08:16:45;16.30;99.90
1524;DHT22;755;53.658;10.118;2023-05-27T08:26:49;17.40;1.00
1524;DHT22;755;53.658;10.118;2023-05-27T08:36:52;17.20;1.00
1524;DHT22;755;53.658;10.118;2023-05-27T08:46:58;16.60;99.90
1524;DHT22;755;53.658;10.118;2023-05-27T08:57:04;17.70;99.90
1524;DHT22;755;53.658;10.118;2023-05-27T09:07:11;18.30;8.10
1524;DHT22;755;53.658;10.118;2023-05-27T09:17:28;18.50;99.90
1524;DHT22;755;53.658;10.118;2023-05-27T09:27:39;20.20;42.00
1524;DHT22;755;53.658;10.118;2023-05-27T09:37:51;20.50;1.00
1524;DHT22;755;53.658;10.118;2023-05-27T09:47:56;20.20;1.00
1524;DHT22;755;53.658;10.118;2023-05-27T09:58:01;19.90;1.00
1524;DHT22;755;53.658;10.118;2023-05-27T10:08:06;19.30;1.00
1524;DHT22;755;53.658;10.118;2023-05-27T10:18:09;20.90;1.00
1524;DHT22;755;53.658;10.118;2023-05-27T10:28:34;19.80;1.00
1524;DHT22;755;53.658;10.118;2023-05-27T10:38:58;18.50;1.00
1524;DHT22;755;53.658;10.118;2023-05-27T10:49:11;19.50;1.00
1524;DHT22;755;53.658;10.118;2023-05-27T10:59:19;20.00;1.00
1524;DHT22;755;53.658;10.118;2023-05-27T11:09:52;20.50;1.00
1524;DHT22;755;53.658;10.118;2023-05-27T11:20:16;20.10;1.00
1524;DHT22;755;53.658;10.118;2023-05-27T11:30:24;19.90;1.00
1524;DHT22;755;53.658;10.118;2023-05-27T11:40:34;20.40;1.00
1524;DHT22;755;53.658;10.118;2023-05-27T11:50:44;20.50;1.00
1524;DHT22;755;53.658;10.118;2023-05-27T12:00:52;20.80;1.00
1524;DHT22;755;53.658;10.118;2023-05-27T12:11:01;21.50;1.00
1524;DHT22;755;53.658;10.118;2023-05-27T12:21:16;21.00;1.00
1524;DHT22;755;53.658;10.118;2023-05-27T12:31:22;21.00;1.00
1524;DHT22;755;53.658;10.118;2023-05-27T12:41:25;19.60;1.00
1524;DHT22;755;53.658;10.118;2023-05-27T12:51:29;20.20;1.00
1524;DHT22;755;53.658;10.118;2023-05-27T13:01:33;21.10;1.00
1524;DHT22;755;53.658;10.118;2023-05-27T13:11:36;21.10;1.00
1524;DHT22;755;53.658;10.118;2023-05-27T13:21:38;20.60;1.00
1524;DHT22;755;53.658;10.118;2023-05-27T13:31:42;20.60;1.00
1524;DHT22;755;53.658;10.118;2023-05-27T13:41:46;21.40;1.00
1524;DHT22;755;53.658;10.118;2023-05-27T13:51:49;21.80;1.00
1524;DHT22;755;53.658;10.118;2023-05-27T14:01:51;22.40;1.00
1524;DHT22;755;53.658;10.118;2023-05-27T14:11:56;22.20;1.00
1524;DHT22;755;53.658;10.118;2023-05-27T14:21:58;22.50;1.00
1524;DHT22;755;53.658;10.118;2023-05-27T14:32:02;22.60;1.00
1524;DHT22;755;53.658;10.118;2023-05-27T14:42:04;21.60;1.00
1524;DHT22;755;53.658;10.118;2023-05-27T14:52:08;20.90;1.00
1524;DHT22;755;53.658;10.118;2023-05-27T15:02:10;20.60;1.00
1524;DHT22;755;53.658;10.118;2023-05-27T15:12:14;20.80;1.00
1524;DHT22;755;53.658;10.118;2023-05-27T15:22:16;20.50;1.00
1524;DHT22;755;53.658;10.118;2023-05-27T15:32:19;20.30;1.00
1524;DHT22;755;53.658;10.118;2023-05-27T15:42:21;20.40;1.00
1524;DHT22;755;53.658;10.118;2023-05-27T15:52:24;20.30;1.00
1524;DHT22;755;53.658;10.118;2023-05-27T16:02:26;20.20;1.00
1524;DHT22;755;53.658;10.118;2023-05-27T16:12:30;20.80;1.00
1524;DHT22;755;53.658;10.118;2023-05-27T16:22:32;20.70;1.00
1524;DHT22;755;53.658;10.118;2023-05-27T16:32:36;20.30;1.00
1524;DHT22;755;53.658;10.118;2023-05-27T16:42:38;20.40;1.00
1524;DHT22;755;53.658;10.118;2023-05-27T16:52:41;20.30;1.00
1524;DHT22;755;53.658;10.118;2023-05-27T17:02:43;20.30;1.00
1524;DHT22;755;53.658;10.118;2023-05-27T17:12:46;20.20;1.00
1524;DHT22;755;53.658;10.118;2023-05-27T17:22:48;20.00;1.00
1524;DHT22;755;53.658;10.118;2023-05-27T17:32:51;19.90;1.00
1524;DHT22;755;53.658;10.118;2023-05-27T17:42:53;19.90;1.00
1524;DHT22;755;53.658;10.118;2023-05-27T17:52:57;19.90;1.00
1524;DHT22;755;53.658;10.118;2023-05-27T18:02:59;19.80;1.00
1524;DHT22;755;53.658;10.118;2023-05-27T18:13:02;19.40;1.00
1524;DHT22;755;53.658;10.118;2023-05-27T18:23:04;19.30;1.00
1524;DHT22;755;53.658;10.118;2023-05-27T18:33:08;19.00;1.00
1524;DHT22;755;53.658;10.118;2023-05-27T18:43:10;18.80;99.90
1524;DHT22;755;53.658;10.118;2023-05-27T18:53:13;18.60;99.90
1524;DHT22;755;53.658;10.118;2023-05-27T19:03:15;18.20;1.00
1524;DHT22;755;53.658;10.118;2023-05-27T19:13:20;17.70;1.00
1524;DHT22;755;53.658;10.118;2023-05-27T19:23:22;17.30;99.90
1524;DHT22;755;53.658;10.118;2023-05-27T19:33:26;16.90;1.00
1524;DHT22;755;53.658;10.118;2023-05-27T19:43:28;16.60;1.00
1524;DHT22;755;53.658;10.118;2023-05-27T19:53:31;16.20;1.00
1524;DHT22;755;53.658;10.118;2023-05-27T20:03:33;16.20;1.00
1524;DHT22;755;53.658;10.118;2023-05-27T20:13:37;16.00;99.90
1524;DHT22;755;53.658;10.118;2023-05-27T20:23:39;15.80;1.00
1524;DHT22;755;53.658;10.118;2023-05-27T20:33:42;15.50;99.90
1524;DHT22;755;53.658;10.118;2023-05-27T20:43:44;15.20;99.90
1524;DHT22;755;53.658;10.118;2023-05-27T20:53:47;14.70;99.90
1524;DHT22;755;53.658;10.118;2023-05-27T21:03:49;14.70;99.90
1524;DHT22;755;53.658;10.118;2023-05-27T21:13:53;14.30;1.00
1524;DHT22;755;53.658;10.118;2023-05-27T21:23:55;13.90;99.90
1524;DHT22;755;53.658;10.118;2023-05-27T21:33:58;13.70;1.00
1524;DHT22;755;53.658;10.118;2023-05-27T21:44:00;13.50;1.00
1524;DHT22;755;53.658;10.118;2023-05-27T21:54:03;13.30;1.00
1524;DHT22;755;53.658;10.118;2023-05-27T22:04:05;13.30;1.00
1524;DHT22;755;53.658;10.118;2023-05-27T22:14:09;13.20;1.00
1524;DHT22;755;53.658;10.118;2023-05-27T22:24:12;13.00;1.00
1524;DHT22;755;53.658;10.118;2023-05-27T22:34:32;12.90;6.70
1524;DHT22;755;53.658;10.118;2023-05-27T22:44:34;12.80;1.00
1524;DHT22;755;53.658;10.118;2023-05-27T22:54:37;12.50;99.90
1524;DHT22;755;53.658;10.118;2023-05-27T23:04:39;12.30;99.90
1524;DHT22;755;53.658;10.118;2023-05-27T23:14:42;12.10;99.90
1524;DHT22;755;53.658;10.118;2023-05-27T23:24:45;11.90;99.90
1524;DHT22;755;53.658;10.118;2023-05-27T23:34:48;11.90;99.90
1524;DHT22;755;53.658;10.118;2023-05-27T23:44:50;11.80;99.90
1524;DHT22;755;53.658;10.118;2023-05-27T23:54:54;11.70;99.90
